createdAt,value
2018-06-09T00:02:12.744Z,0.70
2018-06-09T00:04:41.540Z,0.60
2018-06-09T00:07:15.752Z,0.60
2018-06-09T00:09:44.805Z,0.50
2018-06-09T00:12:14.017Z,0.60
2018-06-09T00:14:44.479Z,0.60
2018-06-09T00:17:13.160Z,0.60
2018-06-09T00:19:42.424Z,0.70
2018-06-09T00:22:11.375Z,0.70
2018-06-09T00:24:40.508Z,0.70
2018-06-09T00:27:09.914Z,0.60
2018-06-09T00:29:38.937Z,0.60
2018-06-09T00:32:08.283Z,0.70
2018-06-09T00:34:37.441Z,0.70
2018-06-09T00:37:06.620Z,0.60
2018-06-09T00:39:35.803Z,0.60
2018-06-09T00:42:04.864Z,0.90
2018-06-09T00:44:33.920Z,3.50
2018-06-09T00:47:03.956Z,2.13
2018-06-09T00:49:33.276Z,1.10
2018-06-09T00:52:02.467Z,1.00
2018-06-09T00:54:31.372Z,0.80
2018-06-09T00:57:03.236Z,0.70
2018-06-09T00:59:32.518Z,1.17
2018-06-09T01:02:01.634Z,0.70
2018-06-09T01:04:30.436Z,0.70
2018-06-09T01:06:59.818Z,0.60
2018-06-09T01:09:28.934Z,0.67
2018-06-09T01:11:58.147Z,0.90
2018-06-09T01:14:27.164Z,0.67
2018-06-09T01:16:57.223Z,0.80
2018-06-09T01:19:26.165Z,0.70
2018-06-09T01:21:55.792Z,0.70
2018-06-09T01:24:24.880Z,0.60
2018-06-09T01:26:54.786Z,0.80
2018-06-09T01:29:23.777Z,0.90
2018-06-09T01:31:53.471Z,0.70
2018-06-09T01:34:22.177Z,0.70
2018-06-09T01:36:51.365Z,0.67
2018-06-09T01:39:20.603Z,0.70
2018-06-09T01:41:49.674Z,0.80
2018-06-09T01:44:18.952Z,0.80
2018-06-09T01:46:48.276Z,0.70
2018-06-09T01:49:17.239Z,0.70
2018-06-09T01:51:46.165Z,0.60
2018-06-09T01:54:15.463Z,0.60
2018-06-09T01:56:45.179Z,0.70
2018-06-09T01:59:14.733Z,0.80
2018-06-09T02:01:43.104Z,0.70
2018-06-09T02:04:12.268Z,0.70
2018-06-09T02:06:41.008Z,0.80
2018-06-09T02:09:10.429Z,0.70
2018-06-09T02:11:40.522Z,0.80
2018-06-09T02:14:09.699Z,0.90
2018-06-09T02:16:39.278Z,0.70
2018-06-09T02:19:08.515Z,0.90
2018-06-09T02:21:37.921Z,0.80
2018-06-09T02:24:06.816Z,1.00
2018-06-09T02:26:35.708Z,0.70
2018-06-09T02:29:04.551Z,0.80
2018-06-09T02:31:34.046Z,0.80
2018-06-09T02:34:04.004Z,0.80
2018-06-09T02:36:32.955Z,0.70
2018-06-09T02:39:03.891Z,0.70
2018-06-09T02:41:32.524Z,0.80
2018-06-09T02:44:01.479Z,0.87
2018-06-09T02:46:30.220Z,1.20
2018-06-09T02:48:59.465Z,0.97
2018-06-09T02:51:28.355Z,1.00
2018-06-09T02:53:57.648Z,1.43
2018-06-09T02:56:27.169Z,1.00
2018-06-09T02:58:55.612Z,1.00
2018-06-09T03:01:24.814Z,0.90
2018-06-09T03:03:53.583Z,0.93
2018-06-09T03:06:22.868Z,0.90
2018-06-09T03:08:51.888Z,0.83
2018-06-09T03:11:21.040Z,0.80
2018-06-09T03:13:50.443Z,0.70
2018-06-09T03:16:19.068Z,0.73
2018-06-09T03:18:48.328Z,0.80
2018-06-09T03:21:17.743Z,0.83
2018-06-09T03:23:46.637Z,1.13
2018-06-09T03:26:15.631Z,1.10
2018-06-09T03:28:44.703Z,1.00
2018-06-09T03:31:13.557Z,0.80
2018-06-09T03:33:43.064Z,1.00
2018-06-09T03:36:12.175Z,1.00
2018-06-09T03:38:41.463Z,0.70
2018-06-09T03:41:10.543Z,1.07
2018-06-09T03:43:39.828Z,0.83
2018-06-09T03:46:08.948Z,0.87
2018-06-09T03:48:38.403Z,0.70
2018-06-09T03:51:07.362Z,0.83
2018-06-09T03:53:37.260Z,0.90
2018-06-09T03:56:07.293Z,0.80
2018-06-09T03:58:36.372Z,0.80
2018-06-09T04:01:05.525Z,0.90
2018-06-09T04:03:34.432Z,0.90
2018-06-09T04:06:04.364Z,0.80
2018-06-09T04:08:34.007Z,0.90
2018-06-09T04:11:03.103Z,0.80
2018-06-09T04:13:32.123Z,0.90
2018-06-09T04:16:01.156Z,0.73
2018-06-09T04:18:30.114Z,1.27
2018-06-09T04:20:59.248Z,1.00
2018-06-09T04:23:28.644Z,0.80
2018-06-09T04:25:57.616Z,0.90
2018-06-09T04:28:27.016Z,0.80
2018-06-09T04:30:56.328Z,0.73
2018-06-09T04:33:25.671Z,0.80
2018-06-09T04:35:54.758Z,0.70
2018-06-09T04:38:24.300Z,0.73
2018-06-09T04:40:53.288Z,0.77
2018-06-09T04:43:22.407Z,0.97
2018-06-09T04:45:51.752Z,0.70
2018-06-09T04:48:21.048Z,0.87
2018-06-09T04:50:50.119Z,0.80
2018-06-09T04:53:18.935Z,1.43
2018-06-09T04:55:48.479Z,0.70
2018-06-09T04:58:17.721Z,0.80
2018-06-09T05:00:48.179Z,0.70
2018-06-09T05:03:18.000Z,0.70
2018-06-09T05:05:46.992Z,0.70
2018-06-09T05:08:15.813Z,0.90
2018-06-09T05:10:44.994Z,0.80
2018-06-09T05:13:14.298Z,0.80
2018-06-09T05:15:43.466Z,0.73
2018-06-09T05:18:12.613Z,0.90
2018-06-09T05:20:41.591Z,0.80
2018-06-09T05:23:10.693Z,0.60
2018-06-09T05:25:39.392Z,0.90
2018-06-09T05:28:09.321Z,0.80
2018-06-09T05:30:38.308Z,0.60
2018-06-09T05:33:07.477Z,0.80
2018-06-09T05:35:36.737Z,0.80
2018-06-09T05:38:06.024Z,0.70
2018-06-09T05:40:35.030Z,0.90
2018-06-09T05:43:04.171Z,0.73
2018-06-09T05:45:33.512Z,0.80
2018-06-09T05:48:02.261Z,1.00
2018-06-09T05:52:53.272Z,0.70
2018-06-09T05:55:22.427Z,1.00
2018-06-09T05:57:51.669Z,0.70
2018-06-09T06:00:21.591Z,0.80
2018-06-09T06:02:50.895Z,0.70
2018-06-09T06:05:20.883Z,0.90
2018-06-09T06:07:49.803Z,0.83
2018-06-09T06:10:18.776Z,0.80
2018-06-09T06:12:48.036Z,0.93
2018-06-09T06:15:17.320Z,0.70
2018-06-09T06:17:46.852Z,1.00
2018-06-09T06:20:15.809Z,0.80
2018-06-09T06:22:44.502Z,0.80
2018-06-09T06:25:13.532Z,0.70
2018-06-09T06:27:42.710Z,0.80
2018-06-09T06:30:11.995Z,0.90
2018-06-09T06:32:41.808Z,0.87
2018-06-09T06:35:11.724Z,0.70
2018-06-09T06:37:41.523Z,0.80
2018-06-09T06:40:11.908Z,0.80
2018-06-09T06:42:42.066Z,0.80
2018-06-09T06:45:11.774Z,0.90
2018-06-09T06:47:40.863Z,0.90
2018-06-09T06:50:09.931Z,1.00
2018-06-09T06:52:38.927Z,0.80
2018-06-09T06:55:08.791Z,1.10
2018-06-09T06:57:38.012Z,1.10
2018-06-09T07:00:07.131Z,0.80
2018-06-09T07:02:36.486Z,0.97
2018-06-09T07:05:06.281Z,1.00
2018-06-09T07:07:36.676Z,0.80
2018-06-09T07:10:06.036Z,0.70
2018-06-09T07:12:35.147Z,1.00
2018-06-09T07:15:04.696Z,0.90
2018-06-09T07:17:34.022Z,0.83
2018-06-09T07:20:03.323Z,1.00
2018-06-09T07:22:32.712Z,0.87
2018-06-09T07:25:01.797Z,1.30
2018-06-09T07:27:31.224Z,0.90
2018-06-09T07:30:01.567Z,1.00
2018-06-09T07:32:30.681Z,0.90
2018-06-09T07:34:59.647Z,0.80
2018-06-09T07:37:28.997Z,1.07
2018-06-09T07:39:58.067Z,0.93
2018-06-09T07:42:27.688Z,0.83
2018-06-09T07:44:57.163Z,1.00
2018-06-09T07:47:26.606Z,0.93
2018-06-09T07:49:55.980Z,0.90
2018-06-09T07:52:25.279Z,0.90
2018-06-09T07:54:54.300Z,0.80
2018-06-09T07:57:23.694Z,1.13
2018-06-09T07:59:53.237Z,1.03
2018-06-09T08:02:22.708Z,0.83
2018-06-09T08:04:51.471Z,0.90
2018-06-09T08:07:26.033Z,0.90
2018-06-09T08:09:55.835Z,0.70
2018-06-09T08:12:25.164Z,1.03
2018-06-09T08:14:54.559Z,1.00
2018-06-09T08:17:23.859Z,0.83
2018-06-09T08:19:53.632Z,1.10
2018-06-09T08:22:22.722Z,1.00
2018-06-09T08:24:52.172Z,0.80
2018-06-09T08:27:20.940Z,0.90
2018-06-09T08:29:50.172Z,1.00
2018-06-09T08:32:19.576Z,0.97
2018-06-09T08:34:49.018Z,1.20
2018-06-09T08:37:18.857Z,1.20
2018-06-09T08:39:48.111Z,1.03
2018-06-09T08:42:17.352Z,0.93
2018-06-09T08:44:46.372Z,1.03
2018-06-09T08:47:15.516Z,1.07
2018-06-09T08:49:45.139Z,1.10
2018-06-09T08:52:14.156Z,1.10
2018-06-09T08:54:43.467Z,1.10
2018-06-09T08:57:12.828Z,1.80
2018-06-09T08:59:45.381Z,1.13
2018-06-09T09:02:16.093Z,1.30
2018-06-09T09:04:45.396Z,1.57
2018-06-09T09:07:14.753Z,1.07
2018-06-09T09:09:44.471Z,0.87
2018-06-09T09:12:14.189Z,0.93
2018-06-09T09:14:44.440Z,1.23
2018-06-09T09:17:13.679Z,1.10
2018-06-09T09:19:45.127Z,1.23
2018-06-09T09:22:14.573Z,1.10
2018-06-09T09:24:43.804Z,1.10
2018-06-09T09:27:13.108Z,1.30
2018-06-09T09:29:42.352Z,1.20
2018-06-09T09:32:11.842Z,1.00
2018-06-09T09:34:40.896Z,1.07
2018-06-09T09:37:09.884Z,1.00
2018-06-09T09:39:38.597Z,1.33
2018-06-09T09:42:07.992Z,1.20
2018-06-09T09:44:37.479Z,1.33
2018-06-09T09:47:06.525Z,1.20
2018-06-09T09:49:36.408Z,1.23
2018-06-09T09:52:05.616Z,1.30
2018-06-09T09:54:34.731Z,1.30
2018-06-09T09:57:03.624Z,1.40
2018-06-09T09:59:32.623Z,1.20
2018-06-09T10:02:01.818Z,1.40
2018-06-09T10:04:30.759Z,1.10
2018-06-09T10:07:00.895Z,1.00
2018-06-09T10:09:30.662Z,1.30
2018-06-09T10:11:59.920Z,1.47
2018-06-09T10:14:32.805Z,1.30
2018-06-09T10:17:03.293Z,1.22
2018-06-09T10:19:32.504Z,1.10
2018-06-09T10:22:01.620Z,1.10
2018-06-09T10:24:30.908Z,1.25
2018-06-09T10:26:59.902Z,1.10
2018-06-09T10:29:29.595Z,1.15
2018-06-09T10:31:58.025Z,1.00
2018-06-09T10:34:27.300Z,1.20
2018-06-09T10:36:56.470Z,1.30
2018-06-09T10:39:25.300Z,1.22
2018-06-09T10:41:54.632Z,1.00
2018-06-09T10:44:24.072Z,1.20
2018-06-09T10:46:53.042Z,1.22
2018-06-09T10:49:24.028Z,1.30
2018-06-09T10:51:53.923Z,1.32
2018-06-09T10:54:23.317Z,1.20
2018-06-09T10:56:52.086Z,1.20
2018-06-09T10:59:20.828Z,1.15
2018-06-09T11:01:49.924Z,1.00
2018-06-09T11:04:19.293Z,1.15
2018-06-09T11:06:48.424Z,1.10
2018-06-09T11:09:17.520Z,1.27
2018-06-09T11:11:51.440Z,1.40
2018-06-09T11:14:20.368Z,1.07
2018-06-09T11:16:50.782Z,1.05
2018-06-09T11:19:21.121Z,0.98
2018-06-09T11:21:50.391Z,1.30
2018-06-09T11:24:19.700Z,1.25
2018-06-09T11:26:49.102Z,1.40
2018-06-09T11:29:18.499Z,1.20
2018-06-09T11:31:48.335Z,1.00
2018-06-09T11:34:18.890Z,1.20
2018-06-09T11:36:49.608Z,0.88
2018-06-09T11:39:19.383Z,1.20
2018-06-09T11:41:49.645Z,1.20
2018-06-09T11:44:19.088Z,1.30
2018-06-09T11:46:49.571Z,1.10
2018-06-09T11:49:20.183Z,1.10
2018-06-09T11:51:49.976Z,1.35
2018-06-09T11:54:22.504Z,1.12
2018-06-09T11:56:51.877Z,1.00
2018-06-09T11:59:21.445Z,1.00
2018-06-09T12:01:50.480Z,0.90
2018-06-09T12:04:20.219Z,1.10
2018-06-09T12:06:49.299Z,0.93
2018-06-09T12:09:18.636Z,1.22
2018-06-09T12:14:22.207Z,1.22
2018-06-09T12:16:50.875Z,1.02
2018-06-09T12:19:20.193Z,1.50
2018-06-09T12:21:48.747Z,1.10
2018-06-09T12:24:17.588Z,1.10
2018-06-09T12:26:46.548Z,1.07
2018-06-09T12:29:16.572Z,1.10
2018-06-09T12:31:45.377Z,1.40
2018-06-09T12:34:13.781Z,1.10
2018-06-09T12:36:46.960Z,1.15
2018-06-09T12:39:16.041Z,0.98
2018-06-09T12:41:45.555Z,1.15
2018-06-09T12:44:14.870Z,1.20
2018-06-09T12:46:46.293Z,1.20
2018-06-09T12:49:15.331Z,1.20
2018-06-09T12:54:25.081Z,1.15
2018-06-09T12:57:03.003Z,1.00
2018-06-09T12:59:39.197Z,1.10
2018-06-09T13:02:08.208Z,1.22
2018-06-09T13:04:37.483Z,1.20
2018-06-09T13:07:08.010Z,1.10
2018-06-09T13:09:37.041Z,1.32
2018-06-09T13:12:09.626Z,1.32
2018-06-09T13:14:39.787Z,1.20
2018-06-09T13:17:10.245Z,1.20
2018-06-09T13:19:43.462Z,1.15
2018-06-09T13:22:13.546Z,1.20
2018-06-09T13:24:42.240Z,1.12
2018-06-09T13:27:11.588Z,1.00
2018-06-09T13:29:41.249Z,0.98
2018-06-09T13:32:09.914Z,1.30
2018-06-09T13:34:39.276Z,1.02
2018-06-09T13:37:09.420Z,1.27
2018-06-09T13:39:38.527Z,1.30
2018-06-09T13:42:08.000Z,1.10
2018-06-09T13:44:37.039Z,1.10
2018-06-09T13:47:06.264Z,1.20
2018-06-09T13:49:35.241Z,1.80
2018-06-09T13:52:04.184Z,1.35
2018-06-09T13:54:33.134Z,1.10
2018-06-09T13:57:02.013Z,1.10
2018-06-09T13:59:31.155Z,1.37
2018-06-09T14:02:00.824Z,1.10
2018-06-09T14:04:30.152Z,1.35
2018-06-09T14:06:58.576Z,1.30
2018-06-09T14:09:27.727Z,1.30
2018-06-09T14:11:57.712Z,1.30
2018-06-09T14:14:27.700Z,1.30
2018-06-09T14:16:57.779Z,1.45
2018-06-09T14:19:27.412Z,1.32
2018-06-09T14:21:57.836Z,1.37
2018-06-09T14:24:27.285Z,1.30
2018-06-09T14:26:56.098Z,1.47
2018-06-09T14:29:28.408Z,1.17
2018-06-09T14:31:58.492Z,1.40
2018-06-09T14:34:27.567Z,1.10
2018-06-09T14:37:00.092Z,1.50
2018-06-09T14:39:29.387Z,1.40
2018-06-09T14:41:58.604Z,1.32
2018-06-09T14:44:28.233Z,1.40
2018-06-09T14:46:57.516Z,1.30
2018-06-09T14:49:27.257Z,1.60
2018-06-09T14:51:56.288Z,1.50
2018-06-09T14:54:25.735Z,1.50
2018-06-09T14:56:54.739Z,1.70
2018-06-09T14:59:23.884Z,1.60
2018-06-09T15:01:52.696Z,1.50
2018-06-09T15:04:22.159Z,1.37
2018-06-09T15:06:51.841Z,1.65
2018-06-09T15:09:21.092Z,1.60
2018-06-09T15:11:50.332Z,1.50
2018-06-09T15:14:19.364Z,1.42
2018-06-09T15:16:48.683Z,1.60
2018-06-09T15:19:17.968Z,1.60
2018-06-09T15:21:46.981Z,1.27
2018-06-09T15:24:16.189Z,1.40
2018-06-09T15:26:45.081Z,1.55
2018-06-09T15:29:14.368Z,1.50
2018-06-09T15:31:43.770Z,1.60
2018-06-09T15:34:12.728Z,1.30
2018-06-09T15:36:41.727Z,1.20
2018-06-09T15:39:10.766Z,1.52
2018-06-09T15:41:40.082Z,1.35
2018-06-09T15:44:09.236Z,1.30
2018-06-09T15:46:41.980Z,2.40
2018-06-09T15:49:11.667Z,1.67
2018-06-09T15:51:40.695Z,1.50
2018-06-09T15:54:09.781Z,1.55
2018-06-09T15:56:38.473Z,1.42
2018-06-09T15:59:11.527Z,1.40
2018-06-09T16:01:40.846Z,1.17
2018-06-09T16:04:09.969Z,1.27
2018-06-09T16:06:38.814Z,1.30
2018-06-09T16:09:07.778Z,1.40
2018-06-09T16:11:37.089Z,1.30
2018-06-09T16:14:06.442Z,1.57
2018-06-09T16:16:35.738Z,1.60
2018-06-09T16:19:05.397Z,1.40
2018-06-09T16:21:34.463Z,1.57
2018-06-09T16:24:03.404Z,1.40
2018-06-09T16:26:32.184Z,1.67
2018-06-09T16:29:01.257Z,1.55
2018-06-09T16:31:29.859Z,1.60
2018-06-09T16:33:58.963Z,1.30
2018-06-09T16:36:27.936Z,1.60
2018-06-09T16:38:56.828Z,1.50
2018-06-09T16:41:26.706Z,1.70
2018-06-09T16:43:55.411Z,1.80
2018-06-09T16:46:24.644Z,1.80
2018-06-09T16:48:54.044Z,1.40
2018-06-09T16:51:23.324Z,1.85
2018-06-09T16:53:53.498Z,1.80
2018-06-09T16:56:22.182Z,1.27
2018-06-09T16:58:51.483Z,1.37
2018-06-09T17:01:20.738Z,1.80
2018-06-09T17:03:49.771Z,2.92
2018-06-09T17:06:18.496Z,2.10
2018-06-09T17:08:47.536Z,3.65
2018-06-09T17:11:17.896Z,2.10
2018-06-09T17:13:47.620Z,1.80
2018-06-09T17:16:17.194Z,1.57
2018-06-09T17:18:45.927Z,1.50
2018-06-09T17:21:15.080Z,1.47
2018-06-09T17:23:44.926Z,1.50
2018-06-09T17:26:13.651Z,1.25
2018-06-09T17:28:43.402Z,2.15
2018-06-09T17:31:13.315Z,1.25
2018-06-09T17:33:42.262Z,1.67
2018-06-09T17:36:11.652Z,1.60
2018-06-09T17:38:45.484Z,1.50
2018-06-09T17:41:16.372Z,1.40
2018-06-09T17:43:45.207Z,1.55
2018-06-09T17:46:14.094Z,1.27
2018-06-09T17:48:42.987Z,1.45
2018-06-09T17:51:12.330Z,4.05
2018-06-09T17:53:41.701Z,2.50
2018-06-09T17:56:11.079Z,1.37
2018-06-09T17:58:40.504Z,1.40
2018-06-09T18:01:09.809Z,1.47
2018-06-09T18:03:38.732Z,1.20
2018-06-09T18:06:07.984Z,1.40
2018-06-09T18:08:37.317Z,1.52
2018-06-09T18:11:06.415Z,1.40
2018-06-09T18:13:35.907Z,1.37
2018-06-09T18:16:05.024Z,1.35
2018-06-09T18:18:33.939Z,2.70
2018-06-09T18:21:02.919Z,1.45
2018-06-09T18:23:36.236Z,1.52
2018-06-09T18:26:06.028Z,1.40
2018-06-09T18:28:35.640Z,1.37
2018-06-09T18:31:04.965Z,1.32
2018-06-09T18:33:33.987Z,1.50
2018-06-09T18:36:02.944Z,1.45
2018-06-09T18:38:33.131Z,1.42
2018-06-09T18:41:02.374Z,1.30
2018-06-09T18:43:31.820Z,1.52
2018-06-09T18:46:00.444Z,1.50
2018-06-09T18:48:29.432Z,1.60
2018-06-09T18:50:58.728Z,1.30
2018-06-09T18:53:28.115Z,1.35
2018-06-09T18:55:57.497Z,1.55
2018-06-09T18:58:26.892Z,1.65
2018-06-09T19:00:55.888Z,1.60
2018-06-09T19:03:25.191Z,1.20
2018-06-09T19:05:54.420Z,1.20
2018-06-09T19:08:23.741Z,1.67
2018-06-09T19:10:53.032Z,1.50
2018-06-09T19:13:22.273Z,1.27
2018-06-09T19:15:51.813Z,1.60
2018-06-09T19:18:21.349Z,1.65
2018-06-09T19:20:51.032Z,1.40
2018-06-09T19:23:20.187Z,1.40
2018-06-09T19:25:49.639Z,1.52
2018-06-09T19:28:19.172Z,1.60
2018-06-09T19:30:48.132Z,1.32
2018-06-09T19:33:17.286Z,1.42
2018-06-09T19:35:46.656Z,1.40
2018-06-09T19:38:16.438Z,1.37
2018-06-09T19:40:45.392Z,1.40
2018-06-09T19:43:14.416Z,1.50
2018-06-09T19:45:43.776Z,1.60
2018-06-09T19:48:13.084Z,1.30
2018-06-09T19:50:42.055Z,1.50
2018-06-09T19:53:11.427Z,1.62
2018-06-09T19:55:40.380Z,1.50
2018-06-09T19:58:10.116Z,1.40
2018-06-09T20:00:39.459Z,1.50
2018-06-09T20:03:08.903Z,1.62
2018-06-09T20:05:38.003Z,1.50
2018-06-09T20:08:06.432Z,1.40
2018-06-09T20:10:35.737Z,1.40
2018-06-09T20:13:06.114Z,1.73
2018-06-09T20:15:37.665Z,1.50
2018-06-09T20:18:07.919Z,1.60
2018-06-09T20:20:37.020Z,1.40
2018-06-09T20:23:06.040Z,1.77
2018-06-09T20:25:35.100Z,1.50
2018-06-09T20:28:05.220Z,1.70
2018-06-09T20:30:34.171Z,1.60
2018-06-09T20:33:03.505Z,1.73
2018-06-09T20:35:32.743Z,1.90
2018-06-09T20:38:02.036Z,1.63
2018-06-09T20:40:30.891Z,1.53
2018-06-09T20:43:00.409Z,1.90
2018-06-09T20:45:29.652Z,1.70
2018-06-09T20:47:58.837Z,1.80
2018-06-09T20:50:27.788Z,2.20
2018-06-09T20:52:56.707Z,1.90
2018-06-09T20:55:26.733Z,2.10
2018-06-09T20:57:55.868Z,1.80
2018-06-09T21:00:25.060Z,1.90
2018-06-09T21:02:54.070Z,1.77
2018-06-09T21:05:22.768Z,1.80
2018-06-09T21:07:51.795Z,1.70
2018-06-09T21:10:20.753Z,1.70
2018-06-09T21:12:49.696Z,1.80
2018-06-09T21:15:18.839Z,1.70
2018-06-09T21:17:48.236Z,1.80
2018-06-09T21:20:16.929Z,2.00
2018-06-09T21:22:46.076Z,1.83
2018-06-09T21:25:15.468Z,2.20
2018-06-09T21:27:49.567Z,1.73
2018-06-09T21:30:22.632Z,1.90
2018-06-09T21:32:57.079Z,2.20
2018-06-09T21:35:36.496Z,2.20
2018-06-09T21:38:11.245Z,2.00
2018-06-09T21:40:45.025Z,1.80
2018-06-09T21:43:26.615Z,2.20
2018-06-09T21:45:56.210Z,1.70
2018-06-09T21:48:25.327Z,1.70
2018-06-09T21:50:54.588Z,1.57
2018-06-09T21:53:23.646Z,1.60
2018-06-09T21:55:52.999Z,1.60
2018-06-09T21:58:22.948Z,2.17
2018-06-09T22:00:52.140Z,1.50
2018-06-09T22:03:21.837Z,1.90
2018-06-09T22:05:50.561Z,1.90
2018-06-09T22:08:19.868Z,1.70
2018-06-09T22:10:48.624Z,1.70
2018-06-09T22:13:18.076Z,1.67
2018-06-09T22:15:48.767Z,1.60
2018-06-09T22:18:17.910Z,1.47
2018-06-09T22:20:47.212Z,1.70
2018-06-09T22:23:16.443Z,1.80
2018-06-09T22:25:50.728Z,1.67
2018-06-09T22:28:20.448Z,2.13
2018-06-09T22:30:50.220Z,1.87
2018-06-09T22:33:18.544Z,1.80
2018-06-09T22:35:47.329Z,1.80
2018-06-09T22:38:16.436Z,1.57
2018-06-09T22:40:46.747Z,1.90
2018-06-09T22:43:15.984Z,1.90
2018-06-09T22:45:45.159Z,1.50
2018-06-09T22:48:14.986Z,1.70
2018-06-09T22:50:45.676Z,1.50
2018-06-09T22:53:15.027Z,1.40
2018-06-09T22:55:44.436Z,1.80
2018-06-09T22:58:13.854Z,1.60
2018-06-09T23:00:50.765Z,1.70
2018-06-09T23:03:20.121Z,1.73
2018-06-09T23:05:49.374Z,1.70
2018-06-09T23:08:18.733Z,1.80
2018-06-09T23:10:48.254Z,1.90
2018-06-09T23:13:17.508Z,1.90
2018-06-09T23:15:47.305Z,1.87
2018-06-09T23:18:16.989Z,1.90
2018-06-09T23:20:46.287Z,1.87
2018-06-09T23:23:16.092Z,2.10
2018-06-09T23:25:45.136Z,1.57
2018-06-09T23:28:14.473Z,1.77
2018-06-09T23:30:43.857Z,1.73
2018-06-09T23:33:13.252Z,1.50
2018-06-09T23:35:42.356Z,1.50
2018-06-09T23:38:11.612Z,1.60
2018-06-09T23:40:40.528Z,1.60
2018-06-09T23:43:10.316Z,1.90
2018-06-09T23:45:39.740Z,1.83
2018-06-09T23:48:08.883Z,1.70
2018-06-09T23:50:39.281Z,2.00
2018-06-09T23:53:08.328Z,1.70
2018-06-09T23:55:37.416Z,1.90
2018-06-09T23:58:06.683Z,1.70
